createdAt,value
2022-08-07T00:04:47.043Z,1.10
2022-08-07T00:10:18.772Z,1.40
2022-08-07T00:15:06.105Z,1.60
2022-08-07T00:20:15.628Z,1.17
2022-08-07T00:25:24.832Z,1.60
2022-08-07T00:30:34.527Z,1.63
2022-08-07T00:35:49.059Z,1.60
2022-08-07T00:40:52.396Z,1.50
2022-08-07T00:46:02.011Z,1.57
2022-08-07T00:51:09.992Z,1.20
2022-08-07T00:56:18.033Z,1.63
2022-08-07T01:01:26.017Z,1.10
2022-08-07T01:06:34.098Z,1.10
2022-08-07T01:12:08.888Z,1.17
2022-08-07T01:16:53.807Z,2.70
2022-08-07T01:22:03.067Z,1.23
2022-08-07T01:27:19.975Z,1.20
2022-08-07T01:32:22.415Z,1.37
2022-08-07T01:37:30.464Z,1.20
2022-08-07T01:42:57.370Z,1.27
2022-08-07T01:48:18.047Z,1.00
2022-08-07T01:53:00.361Z,1.20
2022-08-07T01:58:29.064Z,1.23
2022-08-07T02:03:32.058Z,1.20
2022-08-07T02:08:31.486Z,1.00
2022-08-07T02:13:58.140Z,1.10
2022-08-07T02:18:48.896Z,1.20
2022-08-07T02:23:58.390Z,1.10
2022-08-07T02:29:13.671Z,1.03
2022-08-07T02:34:18.220Z,1.20
2022-08-07T02:39:43.229Z,1.20
2022-08-07T02:44:36.571Z,1.10
2022-08-07T02:49:58.093Z,1.20
2022-08-07T02:54:53.859Z,1.20
2022-08-07T03:00:04.888Z,1.03
2022-08-07T03:05:20.569Z,0.93
2022-08-07T03:10:27.237Z,1.10
2022-08-07T03:15:56.660Z,1.30
2022-08-07T03:20:44.550Z,1.27
2022-08-07T03:25:58.230Z,1.40
2022-08-07T03:31:04.108Z,1.37
2022-08-07T03:36:15.196Z,1.80
2022-08-07T03:41:42.444Z,1.37
2022-08-07T03:46:33.345Z,1.67
2022-08-07T03:51:47.418Z,1.30
2022-08-07T03:57:03.379Z,1.30
2022-08-07T04:02:01.725Z,1.40
2022-08-07T04:07:17.370Z,1.13
2022-08-07T04:12:27.575Z,1.10
2022-08-07T04:18:57.654Z,1.20
2022-08-07T04:22:39.282Z,1.30
2022-08-07T04:27:59.414Z,1.33
2022-08-07T04:32:59.006Z,2.00
2022-08-07T04:38:08.594Z,1.80
2022-08-07T04:43:17.152Z,1.47
2022-08-07T04:48:28.098Z,1.67
2022-08-07T04:54:01.190Z,1.80
2022-08-07T04:59:17.198Z,1.90
2022-08-07T05:04:07.569Z,1.47
2022-08-07T05:09:17.416Z,1.40
2022-08-07T05:14:52.438Z,1.53
2022-08-07T05:19:45.137Z,1.70
2022-08-07T05:24:51.486Z,1.50
2022-08-07T05:29:59.324Z,1.30
2022-08-07T05:35:07.581Z,1.30
2022-08-07T05:40:18.716Z,1.10
2022-08-07T05:45:28.218Z,1.30
2022-08-07T05:50:35.358Z,1.20
2022-08-07T05:56:02.207Z,1.30
2022-08-07T06:00:54.470Z,1.30
2022-08-07T06:06:02.308Z,1.63
2022-08-07T06:11:10.367Z,1.03
2022-08-07T06:16:18.241Z,1.10
2022-08-07T06:22:15.241Z,1.20
2022-08-07T06:26:35.672Z,1.20
2022-08-07T06:31:49.714Z,1.40
2022-08-07T06:36:54.809Z,0.97
2022-08-07T06:42:05.847Z,1.33
2022-08-07T06:47:21.258Z,1.13
2022-08-07T06:52:31.907Z,1.20
2022-08-07T06:57:43.528Z,0.60
2022-08-07T07:02:54.512Z,0.90
2022-08-07T07:07:59.441Z,0.93
2022-08-07T07:13:06.505Z,0.83
2022-08-07T07:18:47.022Z,0.70
2022-08-07T07:24:10.106Z,0.80
2022-08-07T07:29:28.469Z,0.97
2022-08-07T07:33:57.219Z,0.73
2022-08-07T07:39:06.097Z,0.77
2022-08-07T07:44:21.570Z,0.70
2022-08-07T07:50:29.672Z,0.63
2022-08-07T07:54:36.022Z,0.50
2022-08-07T07:59:52.267Z,0.50
2022-08-07T08:04:54.148Z,0.80
2022-08-07T08:10:05.582Z,0.80
2022-08-07T08:15:12.667Z,0.40
2022-08-07T08:20:26.195Z,0.40
2022-08-07T08:25:42.580Z,0.80
2022-08-07T08:30:51.381Z,0.50
2022-08-07T08:35:55.242Z,0.70
2022-08-07T08:41:07.313Z,0.73
2022-08-07T08:46:21.852Z,0.60
2022-08-07T08:51:49.633Z,0.50
2022-08-07T08:56:47.489Z,0.50
2022-08-07T09:01:59.726Z,0.50
2022-08-07T09:07:11.474Z,0.40
2022-08-07T09:12:31.789Z,0.70
2022-08-07T09:17:58.941Z,0.50
2022-08-07T09:24:33.848Z,0.50
2022-08-07T09:28:03.082Z,0.60
2022-08-07T09:33:16.662Z,0.77
2022-08-07T09:38:27.649Z,0.70
2022-08-07T09:44:03.105Z,0.80
2022-08-07T09:54:03.400Z,0.80
2022-08-07T09:59:14.976Z,0.60
2022-08-07T10:04:28.078Z,0.70
2022-08-07T10:09:59.064Z,0.70
2022-08-07T10:14:55.227Z,1.07
2022-08-07T10:20:07.389Z,0.60
2022-08-07T10:25:23.058Z,0.90
2022-08-07T10:30:35.819Z,0.90
2022-08-07T10:35:55.262Z,0.90
2022-08-07T10:41:00.791Z,1.03
2022-08-07T10:46:12.585Z,0.70
2022-08-07T10:51:57.512Z,0.63
2022-08-07T10:56:39.196Z,0.67
2022-08-07T11:02:04.838Z,0.70
2022-08-07T11:07:24.657Z,0.73
2022-08-07T11:12:31.364Z,0.73
2022-08-07T11:17:45.530Z,0.87
2022-08-07T11:22:46.394Z,0.93
2022-08-07T11:28:01.968Z,0.73
2022-08-07T11:33:14.177Z,0.70
2022-08-07T11:38:28.138Z,0.80
2022-08-07T11:43:54.889Z,0.70
2022-08-07T11:49:10.294Z,0.73
2022-08-07T11:54:03.133Z,0.80
2022-08-07T12:00:07.864Z,0.67
2022-08-07T12:04:28.686Z,0.60
2022-08-07T12:14:55.751Z,0.50
2022-08-07T12:20:09.491Z,0.60
2022-08-07T12:26:22.362Z,0.50
2022-08-07T12:30:31.594Z,0.60
2022-08-07T12:35:41.046Z,0.63
2022-08-07T12:40:51.018Z,0.60
2022-08-07T12:46:02.948Z,0.77
2022-08-07T12:51:17.221Z,0.60
2022-08-07T12:56:28.072Z,0.50
2022-08-07T13:01:40.076Z,0.50
2022-08-07T13:07:00.673Z,0.50
2022-08-07T13:12:10.290Z,0.60
2022-08-07T13:17:18.389Z,0.50
2022-08-07T13:28:10.680Z,0.50
2022-08-07T13:32:57.662Z,0.60
2022-08-07T13:38:09.810Z,0.90
2022-08-07T13:43:18.038Z,0.80
2022-08-07T13:48:34.060Z,0.50
2022-08-07T13:53:59.830Z,0.40
2022-08-07T13:58:56.570Z,0.60
2022-08-07T14:04:07.927Z,0.50
2022-08-07T14:10:02.723Z,0.70
2022-08-07T14:14:31.496Z,0.60
2022-08-07T14:20:43.338Z,0.60
2022-08-07T14:24:54.521Z,0.50
2022-08-07T14:30:11.672Z,0.50
2022-08-07T14:35:43.448Z,0.70
2022-08-07T14:40:34.817Z,0.50
2022-08-07T14:45:46.842Z,0.67
2022-08-07T14:50:56.415Z,0.70
2022-08-07T14:56:06.697Z,0.50
2022-08-07T15:01:21.996Z,0.50
2022-08-07T15:06:27.346Z,0.50
2022-08-07T15:11:53.683Z,0.50
2022-08-07T15:22:04.674Z,0.60
2022-08-07T15:27:13.142Z,0.40
2022-08-07T15:32:39.978Z,0.60
2022-08-07T15:38:04.476Z,0.80
2022-08-07T15:48:12.998Z,0.60
2022-08-07T15:53:51.903Z,0.50
2022-08-07T15:58:49.864Z,0.60
2022-08-07T16:04:00.813Z,0.50
2022-08-07T16:09:12.453Z,0.40
2022-08-07T16:14:26.582Z,0.60
2022-08-07T16:19:42.801Z,0.80
2022-08-07T16:24:53.267Z,0.53
2022-08-07T16:35:58.694Z,0.50
2022-08-07T16:46:47.347Z,0.50
2022-08-07T16:51:54.297Z,0.60
2022-08-07T16:56:20.887Z,0.60
2022-08-07T17:01:34.530Z,0.40
2022-08-07T17:06:50.228Z,0.50
2022-08-07T17:12:05.170Z,0.53
2022-08-07T17:17:12.218Z,0.53
2022-08-07T17:22:30.319Z,0.70
2022-08-07T17:27:37.232Z,0.57
2022-08-07T17:32:52.900Z,0.40
2022-08-07T17:38:07.233Z,0.80
2022-08-07T17:43:18.512Z,0.80
2022-08-07T17:48:31.181Z,0.60
2022-08-07T17:58:59.420Z,0.80
2022-08-07T18:04:16.628Z,0.80
2022-08-07T18:09:48.239Z,0.83
2022-08-07T18:14:37.685Z,0.90
2022-08-07T18:21:10.965Z,0.80
2022-08-07T18:24:58.757Z,0.60
2022-08-07T18:30:31.265Z,0.80
2022-08-07T18:35:22.899Z,0.70
2022-08-07T18:40:42.490Z,0.50
2022-08-07T18:46:25.456Z,0.80
2022-08-07T18:51:01.658Z,0.83
2022-08-07T18:56:13.801Z,0.70
2022-08-07T19:02:18.342Z,0.70
2022-08-07T19:06:41.110Z,0.83
2022-08-07T19:12:05.213Z,1.00
2022-08-07T19:17:10.674Z,0.90
2022-08-07T19:22:30.740Z,0.83
2022-08-07T19:28:58.622Z,1.57
2022-08-07T19:32:51.234Z,1.30
2022-08-07T19:38:00.750Z,1.40
2022-08-07T19:43:21.387Z,1.30
2022-08-07T19:48:29.907Z,1.33
2022-08-07T19:54:32.314Z,1.73
2022-08-07T19:58:52.916Z,1.47
2022-08-07T20:04:11.122Z,1.00
2022-08-07T20:09:20.627Z,1.20
2022-08-07T20:14:35.018Z,1.47
2022-08-07T20:19:49.365Z,1.00
2022-08-07T20:24:56.332Z,1.30
2022-08-07T20:30:07.759Z,1.20
2022-08-07T20:35:21.948Z,1.23
2022-08-07T20:40:32.740Z,1.40
2022-08-07T20:46:25.794Z,1.17
2022-08-07T20:50:58.000Z,1.37
2022-08-07T20:56:09.124Z,1.53
2022-08-07T21:01:20.089Z,1.30
2022-08-07T21:06:31.694Z,1.40
2022-08-07T21:11:46.219Z,1.30
2022-08-07T21:16:56.387Z,1.53
2022-08-07T21:22:06.440Z,1.40
2022-08-07T21:27:21.062Z,1.40
2022-08-07T21:32:46.946Z,1.27
2022-08-07T21:37:57.740Z,1.27
2022-08-07T21:43:04.578Z,1.70
2022-08-07T21:48:28.722Z,1.67
2022-08-07T21:53:31.884Z,1.17
2022-08-07T22:04:02.731Z,1.20
2022-08-07T22:09:12.877Z,1.50
2022-08-07T22:14:34.570Z,1.43
2022-08-07T22:19:34.257Z,1.03
2022-08-07T22:24:46.960Z,1.27
2022-08-07T22:30:00.240Z,1.83
2022-08-07T22:35:11.345Z,1.77
2022-08-07T22:40:21.152Z,1.83
2022-08-07T22:46:21.903Z,2.27
2022-08-07T22:55:59.725Z,1.80
2022-08-07T23:01:11.671Z,2.03
2022-08-07T23:06:25.701Z,1.50
2022-08-07T23:11:41.264Z,1.57
2022-08-07T23:16:55.482Z,1.57
2022-08-07T23:22:03.417Z,1.87
2022-08-07T23:27:15.168Z,1.60
2022-08-07T23:34:24.005Z,1.80
2022-08-07T23:38:01.291Z,1.37
2022-08-07T23:43:16.901Z,1.73
2022-08-07T23:48:20.762Z,1.90
2022-08-07T23:53:51.107Z,2.00
2022-08-07T23:58:46.436Z,1.70
